Catàleg de serveis del Meteocat
Campanya meteocatpedra

Dades de l'estació automàtica Pantà de Riba-roja

?
?
Resum diari 21:30 TU
Dades diàries de l'estació meteorològica
Temperatura mitjana 11.6 °C
Temperatura màxima 15.9 °C 15:08 TU
Temperatura mínima 8.9 °C 8:31 TU
Humitat relativa mitjana 76%
Precipitació acumulada 7.7 mm
Ratxa màxima del vent (2 m) 40.3 km/h - 269º 15:10 TU
Irradiació solar global 6.0 MJ/m2

El tram horari està expressat en Temps Universal (TU). Cal sumar una hora en horari d'hivern i dues en horari d'estiu per passar a l'hora oficial.

Pantà de Riba-roja

Metadades estació meteorol´gica
Municipi Riba-roja d'Ebre
Comarca Ribera d'Ebre
Altitud 69 m
Data alta 18.11.1996
Estat actual Operativa
Dades de període
Període
TU
TM
°C
TX
°C
TN
°C
HRM
%
PPT
mm
VVM (2 m)
km/h
DVM (2 m)
graus
VVX (2 m)
km/h
RS
W/m2
00:00 - 00:30 12.2 12.3 12.1 64 0.0 8.3 254 17.3 0
00:30 - 01:00 12.1 12.2 12.0 65 0.0 9.0 251 16.6 0
01:00 - 01:30 11.9 12.1 11.8 67 0.0 7.2 250 12.6 0
01:30 - 02:00 11.9 11.9 11.8 66 0.0 4.3 225 11.5 0
02:00 - 02:30 11.8 11.9 11.5 67 0.0 4.3 237 10.4 0
02:30 - 03:00 11.4 11.5 11.3 69 0.0 7.6 264 13.7 0
03:00 - 03:30 11.2 11.3 11.0 70 0.0 9.4 276 13.3 0
03:30 - 04:00 11.1 11.1 11.0 71 0.0 4.3 247 10.4 0
04:00 - 04:30 11.1 11.2 11.1 73 0.0 0.7 232 4.7 0
04:30 - 05:00 10.8 11.1 10.5 76 0.0 1.4 236 5.8 0
05:00 - 05:30 10.1 10.5 9.6 83 0.2 1.8 88 6.1 0
05:30 - 06:00 9.6 9.7 9.5 85 0.3 1.1 96 4.3 0
06:00 - 06:30 9.4 9.5 9.3 89 0.8 0.7 71 3.6 0
06:30 - 07:00 9.2 9.3 9.1 92 0.3 0.7 66 3.2 1
07:00 - 07:30 9.2 9.3 9.1 90 0.2 1.4 69 5.0 5
07:30 - 08:00 9.2 9.3 9.1 93 0.6 1.8 75 5.0 14
08:00 - 08:30 9.2 9.3 9.0 94 1.9 1.8 237 6.1 15
08:30 - 09:00 9.2 9.4 8.9 96 1.6 4.7 233 12.6 16
09:00 - 09:30 9.3 9.5 9.1 96 1.1 5.4 232 13.0 37
09:30 - 10:00 9.4 9.6 9.3 96 0.7 4.7 225 11.9 112
10:00 - 10:30 9.8 10.0 9.7 94 0.0 7.2 239 18.4 163
10:30 - 11:00 10.4 10.6 10.0 92 0.0 7.2 244 23.8 198
11:00 - 11:30 10.9 11.1 10.5 89 0.0 7.2 245 15.8 244
11:30 - 12:00 11.2 11.4 11.0 87 0.0 7.2 235 15.8 149
12:00 - 12:30 11.6 11.9 11.4 84 0.0 5.4 234 13.7 179
12:30 - 13:00 12.2 12.4 11.9 83 0.0 7.2 260 15.5 278
13:00 - 13:30 13.3 13.8 12.4 78 0.0 5.0 234 12.2 445
13:30 - 14:00 14.1 14.8 13.7 73 0.0 7.2 251 15.8 431
14:00 - 14:30 14.4 14.8 14.0 73 0.0 8.6 271 16.9 374
14:30 - 15:00 15.0 15.8 14.7 70 0.0 13.3 267 32.8 314
15:00 - 15:30 15.8 15.9 15.8 53 0.0 19.8 263 40.3 221
15:30 - 16:00 15.6 15.8 15.2 52 0.0 17.3 260 39.6 97
16:00 - 16:30 14.9 15.2 14.7 53 0.0 16.9 254 37.4 19
16:30 - 17:00 14.5 14.7 14.3 56 0.0 16.9 258 30.2 4
17:00 - 17:30 13.9 14.3 13.7 59 0.0 12.6 257 27.7 0
17:30 - 18:00 13.5 13.7 13.2 61 0.0 6.5 240 16.6 0
18:00 - 18:30 13.0 13.2 12.3 63 0.0 8.3 274 16.9 0
18:30 - 19:00 12.6 12.7 12.5 64 0.0 8.3 256 20.9 0
19:00 - 19:30 12.4 12.6 12.2 65 0.0 7.9 248 20.9 0
19:30 - 20:00 12.2 12.3 11.8 67 0.0 6.1 238 17.6 0
20:00 - 20:30 11.3 11.8 11.0 71 0.0 5.4 285 10.1 0
20:30 - 21:00 10.4 11.0 9.9 77 0.0 6.5 336 10.8 0
21:00 - 21:30 9.6 9.9 9.2 80 0.0 7.9 315 13.7 0
21:30 - 22:00 9.4 9.6 9.2 81 0.0 8.6 281 14.0 0

Les dades en taronja només han passat un control de qualitat automàtic. Resta pendent la seva validació definitiva.